Black Watch — C6RS5 — position and weather

sailwx.info

Track history (hours):
 
Tides and Currents Weather Stations Pressure Air Temp Water Temp Dewpoint Dewpoint Depression Visibility Wind Speed Wind Dir Waves Ship Positions

Black Watch

Last reported at 2017-Feb-18 07:22 UTC. Time now 2017-Feb-19 18:46 UTC.
Position S 37°30' E 176°20'.

Length 205 m; draft 7.5 m.

Type: Passenger vessel. MMSI: 311166000.

Date/timePositionNaut miles runAvg speedWind from/ knotsBaromVisibWave heightAir tempDewpointWater temp
2017-Feb-18 07:22S 37°30' E 176°20'911.3
2017-Feb-18 06:33S 37°35' E 176°11'3 3.2
2017-Feb-18 05:31S 37°39' E 176°11'0 0.0
2017-Feb-18 04:31S 37°39' E 176°11'0 0.0
2017-Feb-18 03:31S 37°39' E 176°11'0 0.0
2017-Feb-18 02:31S 37°39' E 176°11'0 0.0
2017-Feb-18 01:31S 37°39' E 176°11'0 0.0
2017-Feb-18 00:31S 37°39' E 176°11'0 0.0
2017-Feb-17 23:31S 37°39' E 176°11'0 0.0
2017-Feb-17 22:31S 37°39' E 176°11'0 0.0
2017-Feb-17 21:31S 37°39' E 176°11'0 0.0
2017-Feb-17 20:25S 37°39' E 176°11'0 0.0
2017-Feb-17 19:22S 37°39' E 176°11'0 0.0
2017-Feb-17 18:22S 37°39' E 176°11'1 1.7
2017-Feb-17 17:31S 37°37' E 176°10'82 7.5
2017-Feb-17 06:33S 36°39' E 174°57'1111.3
2017-Feb-17 05:33S 36°48' E 174°49'3 2.9
2017-Feb-17 04:22S 36°50' E 174°46'0 0.0
2017-Feb-17 03:10S 36°50' E 174°46'0 0.0
2017-Feb-17 02:28S 36°50' E 174°46'0 0.0
2017-Feb-17 01:28S 36°50' E 174°46'0 0.0
2017-Feb-17 00:16S 36°50' E 174°46'0 0.0
2017-Feb-16 23:28S 36°50' E 174°46'0 0.0
2017-Feb-16 22:22S 36°50' E 174°46'0 0.0
2017-Feb-16 21:28S 36°50' E 174°46'0 0.0
2017-Feb-16 20:22S 36°50' E 174°46'0 0.0
2017-Feb-16 19:22S 36°50' E 174°46'0 0.0
2017-Feb-16 18:28S 36°50' E 174°46'0 0.0
2017-Feb-16 17:28S 36°50' E 174°46'0 0.0
2017-Feb-16 16:04S 36°50' E 174°46'0 0.0
2017-Feb-16 15:28S 36°50' E 174°46'0 0.0
2017-Feb-16 14:28S 36°50' E 174°46'0 0.0
2017-Feb-16 13:28S 36°50' E 174°46'0 0.0
2017-Feb-16 12:28S 36°50' E 174°46'0 0.0
2017-Feb-16 11:28S 36°50' E 174°46'0 0.0
2017-Feb-16 10:28S 36°50' E 174°46'0 0.0
2017-Feb-16 09:28S 36°50' E 174°46'0 0.0
2017-Feb-16 08:28S 36°50' E 174°46'0 0.0
2017-Feb-16 07:28S 36°50' E 174°46'0 0.0
2017-Feb-16 06:28S 36°50' E 174°46'0 0.0
2017-Feb-16 05:28S 36°50' E 174°46'0 0.0
2017-Feb-16 04:28S 36°50' E 174°46'0 0.0
2017-Feb-16 03:28S 36°50' E 174°46'0 0.0
2017-Feb-16 02:22S 36°50' E 174°46'0 0.0
2017-Feb-16 01:28S 36°50' E 174°46'0 0.0
2017-Feb-16 00:16S 36°50' E 174°46'0 0.0
2017-Feb-15 23:22S 36°50' E 174°46'0 0.0
2017-Feb-15 22:22S 36°50' E 174°46'0 0.0
2017-Feb-15 21:28S 36°50' E 174°46'0 0.0
2017-Feb-15 20:28S 36°50' E 174°46'0 0.0
2017-Feb-15 19:22S 36°50' E 174°46'0 0.0
2017-Feb-15 18:28S 36°50' E 174°46'0 0.0
2017-Feb-15 17:28S 36°50' E 174°46'0 0.0
2017-Feb-15 16:28S 36°50' E 174°46'0 0.0
2017-Feb-15 15:28S 36°50' E 174°46'0 0.0
2017-Feb-15 14:28S 36°50' E 174°46'0 0.0
2017-Feb-15 13:22S 36°50' E 174°46'0 0.0
2017-Feb-15 12:28S 36°50' E 174°46'0 0.0
2017-Feb-15 11:28S 36°50' E 174°46'0 0.0
2017-Feb-15 10:22S 36°50' E 174°46'0 0.0
2017-Feb-15 09:28S 36°50' E 174°46'0 0.0
2017-Feb-15 08:28S 36°50' E 174°46'0 0.0
2017-Feb-15 07:28S 36°50' E 174°46'0 0.0
2017-Feb-15 06:28S 36°50' E 174°46'0 0.0
2017-Feb-15 05:28S 36°50' E 174°46'0 0.0
2017-Feb-15 04:28S 36°50' E 174°46'0 0.0
2017-Feb-15 03:28S 36°50' E 174°46'0 0.0
2017-Feb-15 02:28S 36°50' E 174°46'0 0.0
2017-Feb-15 01:28S 36°50' E 174°46'0 0.0
2017-Feb-15 00:28S 36°50' E 174°46'0 0.0
2017-Feb-14 23:28S 36°50' E 174°46'0 0.0
2017-Feb-14 22:28S 36°50' E 174°46'0 0.0
2017-Feb-14 21:28S 36°50' E 174°46'1 1.1
2017-Feb-14 20:33S 36°50' E 174°47'9 9.4
2017-Feb-14 19:33S 36°42' E 174°53'1717.5
2017-Feb-14 18:33S 36°30' E 175°08'  
Track history (hours):
 
Tides and Currents Weather Stations Pressure Air Temp Water Temp Dewpoint Dewpoint Depression Visibility Wind Speed Wind Dir Waves Ship Positions

Black Watch

Last reported at 2017-Feb-18 07:22 UTC. Time now 2017-Feb-19 18:46 UTC.
Position S 37°30' E 176°20'.

Length 205 m; draft 7.5 m.

Type: Passenger vessel. MMSI: 311166000.

Date/timePositionNaut miles runAvg speedWind from/ knotsBaromVisibWave heightAir tempDewpointWater temp
2017-Feb-18 07:22S 37°30' E 176°20'911.3
2017-Feb-18 06:33S 37°35' E 176°11'3 3.2
2017-Feb-18 05:31S 37°39' E 176°11'0 0.0
2017-Feb-18 04:31S 37°39' E 176°11'0 0.0
2017-Feb-18 03:31S 37°39' E 176°11'0 0.0
2017-Feb-18 02:31S 37°39' E 176°11'0 0.0
2017-Feb-18 01:31S 37°39' E 176°11'0 0.0
2017-Feb-18 00:31S 37°39' E 176°11'0 0.0
2017-Feb-17 23:31S 37°39' E 176°11'0 0.0
2017-Feb-17 22:31S 37°39' E 176°11'0 0.0
2017-Feb-17 21:31S 37°39' E 176°11'0 0.0
2017-Feb-17 20:25S 37°39' E 176°11'0 0.0
2017-Feb-17 19:22S 37°39' E 176°11'0 0.0
2017-Feb-17 18:22S 37°39' E 176°11'1 1.7
2017-Feb-17 17:31S 37°37' E 176°10'82 7.5
2017-Feb-17 06:33S 36°39' E 174°57'1111.3
2017-Feb-17 05:33S 36°48' E 174°49'3 2.9
2017-Feb-17 04:22S 36°50' E 174°46'0 0.0
2017-Feb-17 03:10S 36°50' E 174°46'0 0.0
2017-Feb-17 02:28S 36°50' E 174°46'0 0.0
2017-Feb-17 01:28S 36°50' E 174°46'0 0.0
2017-Feb-17 00:16S 36°50' E 174°46'0 0.0
2017-Feb-16 23:28S 36°50' E 174°46'0 0.0
2017-Feb-16 22:22S 36°50' E 174°46'0 0.0
2017-Feb-16 21:28S 36°50' E 174°46'0 0.0
2017-Feb-16 20:22S 36°50' E 174°46'0 0.0
2017-Feb-16 19:22S 36°50' E 174°46'0 0.0
2017-Feb-16 18:28S 36°50' E 174°46'0 0.0
2017-Feb-16 17:28S 36°50' E 174°46'0 0.0
2017-Feb-16 16:04S 36°50' E 174°46'0 0.0
2017-Feb-16 15:28S 36°50' E 174°46'0 0.0
2017-Feb-16 14:28S 36°50' E 174°46'0 0.0
2017-Feb-16 13:28S 36°50' E 174°46'0 0.0
2017-Feb-16 12:28S 36°50' E 174°46'0 0.0
2017-Feb-16 11:28S 36°50' E 174°46'0 0.0
2017-Feb-16 10:28S 36°50' E 174°46'0 0.0
2017-Feb-16 09:28S 36°50' E 174°46'0 0.0
2017-Feb-16 08:28S 36°50' E 174°46'0 0.0
2017-Feb-16 07:28S 36°50' E 174°46'0 0.0
2017-Feb-16 06:28S 36°50' E 174°46'0 0.0
2017-Feb-16 05:28S 36°50' E 174°46'0 0.0
2017-Feb-16 04:28S 36°50' E 174°46'0 0.0
2017-Feb-16 03:28S 36°50' E 174°46'0 0.0
2017-Feb-16 02:22S 36°50' E 174°46'0 0.0
2017-Feb-16 01:28S 36°50' E 174°46'0 0.0
2017-Feb-16 00:16S 36°50' E 174°46'0 0.0
2017-Feb-15 23:22S 36°50' E 174°46'0 0.0
2017-Feb-15 22:22S 36°50' E 174°46'0 0.0
2017-Feb-15 21:28S 36°50' E 174°46'0 0.0
2017-Feb-15 20:28S 36°50' E 174°46'0 0.0
2017-Feb-15 19:22S 36°50' E 174°46'0 0.0
2017-Feb-15 18:28S 36°50' E 174°46'0 0.0
2017-Feb-15 17:28S 36°50' E 174°46'0 0.0
2017-Feb-15 16:28S 36°50' E 174°46'0 0.0
2017-Feb-15 15:28S 36°50' E 174°46'0 0.0
2017-Feb-15 14:28S 36°50' E 174°46'0 0.0
2017-Feb-15 13:22S 36°50' E 174°46'0 0.0
2017-Feb-15 12:28S 36°50' E 174°46'0 0.0
2017-Feb-15 11:28S 36°50' E 174°46'0 0.0
2017-Feb-15 10:22S 36°50' E 174°46'0 0.0
2017-Feb-15 09:28S 36°50' E 174°46'0 0.0
2017-Feb-15 08:28S 36°50' E 174°46'0 0.0
2017-Feb-15 07:28S 36°50' E 174°46'0 0.0
2017-Feb-15 06:28S 36°50' E 174°46'0 0.0
2017-Feb-15 05:28S 36°50' E 174°46'0 0.0
2017-Feb-15 04:28S 36°50' E 174°46'0 0.0
2017-Feb-15 03:28S 36°50' E 174°46'0 0.0
2017-Feb-15 02:28S 36°50' E 174°46'0 0.0
2017-Feb-15 01:28S 36°50' E 174°46'0 0.0
2017-Feb-15 00:28S 36°50' E 174°46'0 0.0
2017-Feb-14 23:28S 36°50' E 174°46'0 0.0
2017-Feb-14 22:28S 36°50' E 174°46'0 0.0
2017-Feb-14 21:28S 36°50' E 174°46'1 1.1
2017-Feb-14 20:33S 36°50' E 174°47'9 9.4
2017-Feb-14 19:33S 36°42' E 174°53'1717.5
2017-Feb-14 18:33S 36°30' E 175°08'  

Dump ship's entire track history